Mildred, Pennsylvania
Current Conditions -  °F | °C
As of 6:54 PM on Sunday 23 Nov 2014 (Local Time) from KIPT Reporting Station
Clear Clear  
Wind Chill: 37°   Ceiling: Unl
Heat Index: 37°   Visibility: 10mi
Dew Point: 28°   Wind: 3mph
Humidity: 70%   Direction: 50°NE
Pressure: 29.99"   Gusts: NA
Location:  41.48°N, 76.38°W
Report Text: KIPT 232354Z 05003KT 10SM CLR 03/M02 A2999 RMK AO2 SLP159 T00281022 10100 20022 56016
Loading
Personal Weather Stations






























Interactive Weather Map New forecast layout! Learn more

10-Day Weather Forecast

Advertisements
Track Severe Weather on mobile